EW7944 Sundsvall SE current weather conditions

sailwx.info

Air temperature 2.2° C
Dewpoint -3.3° C

Last reported at 2020-Jan-22 15:00 UTC.
Time now 2020-Jan-22 15:46 UTC

Location: N 62°35' E 017°05'.
View on Google Maps.

See reports from other nearby stations

  
Tides and Currents Weather Stations Pressure Air Temp Water Temp Dewpoint Dewpoint Depression Visibility Wind Speed Wind Dir Waves Ship Positions
date/time (UTC)wind fromknots sea level pressurealtimeterstation pressurevisibilityair tempwater tempwave heightnotes
2020-Jan-22 15:00 2.2
2020-Jan-22 14:50 2.2
2020-Jan-22 14:40 2.2
2020-Jan-22 14:30 2.2
2020-Jan-22 14:20 2.8
2020-Jan-22 14:10 2.8
2020-Jan-22 14:00 2.8
2020-Jan-22 13:50 180 0 gusting 7 2.8
2020-Jan-22 13:40 3.3
2020-Jan-22 13:30 3.3
2020-Jan-22 13:20 3.3
2020-Jan-22 13:11 180 0 gusting 13 3.3
2020-Jan-22 13:00 180 0 gusting 11 3.3
2020-Jan-22 12:50 3.3
2020-Jan-22 12:40 3.3
2020-Jan-22 12:30 180 0 gusting 8 3.9
2020-Jan-22 12:20 3.3
2020-Jan-22 12:10 180 0 gusting 12 3.3
2020-Jan-22 12:00 180 1 gusting 13 3.3
2020-Jan-22 11:50 203 1 gusting 14 3.3
2020-Jan-22 11:40 180 0 gusting 8 3.3
2020-Jan-22 11:30 3.3
2020-Jan-22 11:20 158 0 gusting 8 3.3
2020-Jan-22 11:10 180 1 gusting 15 3.3
2020-Jan-22 11:00 2.8
2020-Jan-22 10:50 180 0 gusting 17 2.8
2020-Jan-22 10:40 2.8
2020-Jan-22 10:30 158 2 gusting 13 2.8
2020-Jan-22 10:20 2.8
2020-Jan-22 10:10 180 0 gusting 13 2.8
2020-Jan-22 10:00 2.8
2020-Jan-22 09:50 2.8
2020-Jan-22 09:40 203 0 gusting 13 2.2
2020-Jan-22 09:30 203 1 gusting 13 2.2
2020-Jan-22 09:20 180 1 gusting 19 2.2
2020-Jan-22 09:10 135 2 gusting 17 2.2
2020-Jan-22 09:00 180 0 gusting 12 2.2
2020-Jan-22 08:50 180 0 gusting 13 2.2
2020-Jan-22 08:40 180 2 gusting 14 2.2
2020-Jan-22 08:30 2.2
2020-Jan-22 08:20 2.2
2020-Jan-22 08:10 2.2
2020-Jan-22 08:00 180 0 gusting 15 2.2
2020-Jan-22 07:50 180 1 gusting 13 2.2
2020-Jan-22 07:40 180 1 gusting 15 2.2
2020-Jan-22 07:30 180 1 gusting 17 2.8
2020-Jan-22 07:20 158 0 gusting 9 2.8
2020-Jan-22 07:10 203 1 gusting 14 2.8
2020-Jan-22 07:00 158 2 gusting 18 2.8
2020-Jan-22 06:50 180 0 gusting 6 2.8
2020-Jan-22 06:40 180 0 gusting 17 2.8
2020-Jan-22 06:30 158 1 gusting 19 2.8
2020-Jan-22 06:20 203 4 gusting 19 2.2
2020-Jan-22 06:10 180 3 gusting 17 2.2
2020-Jan-22 06:00 180 2 gusting 17 2.2
2020-Jan-22 05:50 180 4 gusting 25 2.2
2020-Jan-22 05:40 180 5 gusting 28 2.2
2020-Jan-22 05:30 180 3 gusting 22 2.2
2020-Jan-22 05:20 180 3 gusting 21 2.2
2020-Jan-22 05:10 203 4 gusting 20 2.2
2020-Jan-22 05:00 180 6 gusting 19 2.8
2020-Jan-22 04:50 180 3 gusting 22 2.2
2020-Jan-22 04:40 180 5 gusting 19 2.2
2020-Jan-22 04:20 158 4 gusting 20 2.2
2020-Jan-22 04:10 180 0 gusting 13 2.2
2020-Jan-22 04:01 180 2 gusting 21 2.2
2020-Jan-22 03:50 158 1 gusting 13 2.2
2020-Jan-22 03:40 180 4 gusting 19 2.2
2020-Jan-22 03:30 158 1 gusting 13 1.7
2020-Jan-22 03:20 158 1 gusting 14 2.2
2020-Jan-22 03:10 180 3 gusting 19 1.7
2020-Jan-22 03:00 158 2 gusting 18 1.7
2020-Jan-22 02:50 158 4 gusting 17 1.7
2020-Jan-22 02:40 158 2 gusting 14 1.7
2020-Jan-22 02:30 180 3 gusting 18 1.7
2020-Jan-22 02:20 180 1 gusting 13 1.7
2020-Jan-22 02:10 180 5 gusting 20 1.7
2020-Jan-22 02:00 180 0 gusting 15 1.7
2020-Jan-22 01:50 180 1 gusting 13 2.2
2020-Jan-22 01:40 158 1 gusting 19 2.2
2020-Jan-22 01:30 158 0 gusting 11 1.7
2020-Jan-22 01:20 2.2
2020-Jan-22 01:10 180 2 gusting 14 2.2
2020-Jan-22 01:00 2.2
2020-Jan-22 00:50 180 0 gusting 12 2.2
2020-Jan-22 00:40 158 1 gusting 15 2.2
2020-Jan-22 00:30 180 1 gusting 17 2.2
2020-Jan-22 00:20 158 1 gusting 17 2.2
2020-Jan-22 00:10 2.2
2020-Jan-22 00:00 158 0 gusting 8 2.2
2020-Jan-21 23:50 158 1 gusting 14 2.2
2020-Jan-21 23:40 180 0 gusting 19 2.2
2020-Jan-21 23:30 158 0 gusting 12 2.8
2020-Jan-21 23:20 180 0 gusting 17 2.8
2020-Jan-21 23:10 180 4 gusting 25 2.8
2020-Jan-21 23:00 180 0 gusting 13 2.8
2020-Jan-21 22:50 180 2 gusting 20 2.8
2020-Jan-21 22:40 158 0 gusting 11 2.8
2020-Jan-21 22:30 158 4 gusting 21 2.8
2020-Jan-21 22:20 158 1 gusting 13 2.8
2020-Jan-21 22:10 180 6 gusting 24 3.3
2020-Jan-21 22:00 180 4 gusting 19 3.3
2020-Jan-21 21:50 158 5 gusting 17 3.3
2020-Jan-21 21:40 090 2 gusting 15 3.3
2020-Jan-21 21:30 023 3 gusting 17 3.3
2020-Jan-21 21:20 180 3 gusting 17 3.3
2020-Jan-21 21:10 180 3 gusting 22 3.3
2020-Jan-21 21:00 180 2 gusting 15 3.3
2020-Jan-21 20:50 180 4 gusting 22 3.3
2020-Jan-21 20:40 158 7 gusting 22 3.3
2020-Jan-21 20:30 180 6 gusting 19 3.3
2020-Jan-21 20:20 180 6 gusting 19 3.3
2020-Jan-21 20:10 3.3
2020-Jan-21 20:00 158 3 gusting 18 3.3
2020-Jan-21 19:51 068 3 gusting 19 3.3
2020-Jan-21 19:40 158 4 gusting 20 3.3
2020-Jan-21 19:30 023 4 gusting 21 3.3
2020-Jan-21 19:21 158 3 gusting 21 3.3
2020-Jan-21 19:10 3.3
2020-Jan-21 19:00 068 0 gusting 14 2.8
2020-Jan-21 18:50 113 0 gusting 8 2.8
2020-Jan-21 18:40 338 2 gusting 19 3.3
2020-Jan-21 18:30 3.3
2020-Jan-21 18:20 315 2 gusting 19 3.3
2020-Jan-21 18:10 045 3 gusting 17 3.3
2020-Jan-21 18:00 3.3
2020-Jan-21 17:50 3.3
2020-Jan-21 17:40 158 3 gusting 19 3.9
2020-Jan-21 17:30 158 6 gusting 20 3.9
2020-Jan-21 17:20 3.9
2020-Jan-21 17:10 158 6 gusting 20 3.9
2020-Jan-21 17:00 3.9
2020-Jan-21 16:50 068 1 gusting 19 3.3
2020-Jan-21 16:40 135 0 gusting 13 3.3
2020-Jan-21 16:30 045 1 gusting 9 3.3
2020-Jan-21 16:20 045 2 gusting 15 3.9
2020-Jan-21 16:10 023 1 gusting 12 3.9
2020-Jan-21 16:00 158 4 gusting 17 3.9
2020-Jan-21 15:50 158 0 gusting 7 3.9
2020-Jan-21 15:40 158 2 gusting 17 3.9
2020-Jan-21 15:30 180 1 gusting 17 3.9
2020-Jan-21 15:20 180 4 gusting 20 3.9
2020-Jan-21 15:10 180 4 gusting 19 3.9
2020-Jan-21 15:00 158 6 gusting 18 3.9
2020-Jan-21 14:50 158 6 gusting 19 4.4
2020-Jan-21 14:40 180 4 gusting 19 3.9
2020-Jan-21 14:30 158 3 gusting 20 4.4
2020-Jan-21 14:20 158 6 gusting 22 4.4
2020-Jan-21 14:10 180 4 gusting 19 4.4
2020-Jan-21 14:00 203 4 gusting 18 4.4
2020-Jan-21 13:50 180 4 gusting 19 4.4
2020-Jan-21 13:40 180 4 gusting 19 4.4
2020-Jan-21 13:30 158 2 gusting 19 4.4
2020-Jan-21 13:20 158 4 gusting 20 4.4
2020-Jan-21 13:10 180 5 gusting 18 5.0
2020-Jan-21 13:00 158 6 gusting 19 5.0
2020-Jan-21 12:50 135 6 gusting 26 5.0
2020-Jan-21 12:40 4.4
2020-Jan-21 12:30 113 3 gusting 19 4.4
2020-Jan-21 12:20 158 1 gusting 14 4.4
2020-Jan-21 12:10 5.0
2020-Jan-21 12:00 158 4 gusting 22 5.0
2020-Jan-21 11:50 158 4 gusting 17 5.0
2020-Jan-21 11:40 158 3 gusting 18 5.0
2020-Jan-21 11:30 180 9 gusting 22 5.0
2020-Jan-21 11:20 180 6 gusting 22 5.0
2020-Jan-21 11:11 180 7 gusting 22 5.0
2020-Jan-21 11:00 180 10 gusting 22 5.0
2020-Jan-21 10:50 180 8 gusting 28 5.0
2020-Jan-21 10:40 180 6 gusting 22 5.0
2020-Jan-21 10:30 180 7 gusting 21 4.4
2020-Jan-21 10:20 180 12 gusting 26 5.0
2020-Jan-21 10:10 158 9 gusting 26 4.4
2020-Jan-21 10:00 158 8 gusting 25 4.4
2020-Jan-21 09:50 4.4
2020-Jan-21 09:40 4.4
2020-Jan-21 09:30 158 5 gusting 19 3.9
2020-Jan-21 09:20 3.9
2020-Jan-21 09:10 158 3 gusting 13 3.9
2020-Jan-21 09:00 135 6 gusting 22 3.9
2020-Jan-21 08:50 315 6 gusting 20 3.9
2020-Jan-21 08:40 3.9
2020-Jan-21 08:30 135 3 gusting 17 3.9
2020-Jan-21 08:20 158 6 gusting 19 3.9
2020-Jan-21 08:10 3.9
2020-Jan-21 08:00 3.9
2020-Jan-21 07:50 3.9
2020-Jan-21 07:40 113 2 gusting 13 3.9
2020-Jan-21 07:30 023 2 gusting 15 3.9
2020-Jan-21 07:20 3.9
2020-Jan-21 07:10 158 2 gusting 17 3.9
2020-Jan-21 07:00 3.9
2020-Jan-21 06:50 180 1 gusting 21 3.9
2020-Jan-21 06:40 023 1 gusting 15 3.9
2020-Jan-21 06:30 338 0 gusting 12 4.4
2020-Jan-21 06:20 203 2 gusting 13 4.4
2020-Jan-21 06:10 4.4
2020-Jan-21 06:00 4.4
2020-Jan-21 05:50 158 5 gusting 19 5.0
2020-Jan-21 05:40 180 6 gusting 25 5.0
2020-Jan-21 05:30 045 4 gusting 19 5.0
2020-Jan-21 05:20 180 4 gusting 20 5.0
2020-Jan-21 05:10 068 1 gusting 14 5.0
2020-Jan-21 05:00 090 4 gusting 19 5.0
2020-Jan-21 04:50 180 5 gusting 19 5.6
2020-Jan-21 04:40 180 6 gusting 17 5.6
2020-Jan-21 04:30 158 6 gusting 19 5.6
2020-Jan-21 04:20 158 4 gusting 17 5.0
2020-Jan-21 04:10 135 1 gusting 19 5.0
2020-Jan-21 04:00 158 5 gusting 18 5.6
2020-Jan-21 03:50 180 6 gusting 20 5.6
2020-Jan-21 03:40 180 6 gusting 19 5.6
2020-Jan-21 03:30 158 4 gusting 21 5.6
2020-Jan-21 03:20 135 4 gusting 15 5.6
2020-Jan-21 03:10 158 3 gusting 20 6.1
2020-Jan-21 03:00 158 0 gusting 12 6.1
2020-Jan-21 02:50 158 5 gusting 17 6.7
2020-Jan-21 02:40 135 0 gusting 6 6.7
2020-Jan-21 02:31 6.7
2020-Jan-21 02:20 6.7
2020-Jan-21 02:10 7.2
2020-Jan-21 02:00 158 4 gusting 18 7.8
2020-Jan-21 01:50 135 2 gusting 17 7.8
2020-Jan-21 01:40 135 1 gusting 7 7.8
2020-Jan-21 01:30 135 2 gusting 13 7.8
2020-Jan-21 01:20 135 2 gusting 13 8.3
2020-Jan-21 01:10 135 3 gusting 17 8.3
2020-Jan-21 01:00 158 1 gusting 13 8.3
2020-Jan-21 00:50 113 1 gusting 9 8.3
2020-Jan-21 00:40 180 0 gusting 12 8.9
2020-Jan-21 00:30 158 5 gusting 26 8.9
2020-Jan-21 00:20 135 1 gusting 13 8.9
2020-Jan-21 00:10 113 3 gusting 15 9.4
2020-Jan-21 00:00 135 0 gusting 7 8.9
2020-Jan-20 23:50 9.4
2020-Jan-20 23:40 135 0 gusting 12 9.4
2020-Jan-20 23:30 158 0 gusting 9 10.0
2020-Jan-20 23:20 135 2 gusting 18 10.0
2020-Jan-20 23:10 135 1 gusting 13 10.0
2020-Jan-20 23:00 135 2 gusting 11 10.0
2020-Jan-20 22:50 135 1 gusting 13 10.0
2020-Jan-20 22:40 135 1 gusting 12 10.0
2020-Jan-20 22:30 135 2 gusting 15 10.0
2020-Jan-20 22:20 135 5 gusting 17 10.6
2020-Jan-20 22:10 113 1 gusting 14 10.6
2020-Jan-20 22:00 180 4 gusting 14 10.6
2020-Jan-20 21:50 158 4 gusting 17 10.0
2020-Jan-20 21:40 135 2 gusting 18 10.0
2020-Jan-20 21:30 158 2 gusting 15 10.0
2020-Jan-20 21:20 135 1 gusting 13 9.4
2020-Jan-20 21:10 8.9
2020-Jan-20 21:00 8.9
2020-Jan-20 20:50 135 0 gusting 11 9.4
2020-Jan-20 20:40 9.4
2020-Jan-20 20:30 135 0 gusting 8 9.4
2020-Jan-20 20:20 9.4
2020-Jan-20 20:10 9.4
2020-Jan-20 20:00 113 2 gusting 13 9.4
2020-Jan-20 19:50 113 2 gusting 15 10.0
2020-Jan-20 19:40 113 1 gusting 13 10.0
2020-Jan-20 19:30 135 3 gusting 13 10.0
2020-Jan-20 19:20 135 0 gusting 9 10.0
2020-Jan-20 19:10 135 0 gusting 8 10.0
2020-Jan-20 19:00 180 1 gusting 11 10.6
2020-Jan-20 18:50 090 1 gusting 12 10.0
2020-Jan-20 18:40 135 0 gusting 9 10.0
2020-Jan-20 18:30 113 0 gusting 13 10.0
2020-Jan-20 18:20 158 0 gusting 11 10.0
2020-Jan-20 18:10 068 1 gusting 8 10.0
2020-Jan-20 18:00 113 3 gusting 17 10.0
2020-Jan-20 17:51 135 3 gusting 14 10.0
2020-Jan-20 17:40 135 2 gusting 14 10.0
2020-Jan-20 17:30 135 2 gusting 17 10.0
2020-Jan-20 17:20 135 0 gusting 8 9.4
2020-Jan-20 17:10 135 1 gusting 11 9.4
2020-Jan-20 17:00 113 1 gusting 12 8.9
2020-Jan-20 16:50 045 1 gusting 11 8.9
2020-Jan-20 16:40 023 1 gusting 8 8.9
2020-Jan-20 16:30 7.8
2020-Jan-20 16:20 7.8
2020-Jan-20 16:10 7.8
2020-Jan-20 16:00 7.2
2020-Jan-20 15:50 158 1 gusting 6 7.8
2020-Jan-20 15:40 6.7
2020-Jan-20 15:30 5.6
2020-Jan-20 15:20 6.1
2020-Jan-20 15:10 6.1
2020-Jan-20 15:00 5.6